Time;durP1;ratioP1;P1;durP2;ratioP2;P2;SDS_P1;SDS_P2;PMS_P1;PMS_P2;Temp;Humidity;BMP_temperature;BMP_pressure;BME280_temperature;BME280_humidity;BME280_pressure;Samples;Min_cycle;Max_cycle;Signal;HPM_P1;HPM_P2
2023/05/25 00:01:29;;;;;;;13.77;3.95;;;;;;;8.32;100.00;102760.03;5034999;28;20029;-72
2023/05/25 00:03:54;;;;;;;13.27;4.03;;;;;;;8.27;100.00;102766.41;5035435;28;20458;-73
2023/05/25 00:06:24;;;;;;;12.02;3.83;;;;;;;8.21;100.00;102764.06;5034927;28;20049;-73
2023/05/25 00:08:54;;;;;;;15.07;4.10;;;;;;;8.13;100.00;102766.22;5035298;28;20033;-71
2023/05/25 00:11:22;;;;;;;15.65;3.63;;;;;;;8.07;100.00;102771.84;5034853;28;20072;-71
2023/05/25 00:13:48;;;;;;;14.88;4.55;;;;;;;8.00;100.00;102768.66;5035147;28;20037;-72
2023/05/25 00:16:13;;;;;;;14.23;3.92;;;;;;;7.96;100.00;102764.41;5033657;28;20117;-72
2023/05/25 00:18:38;;;;;;;8.95;3.75;;;;;;;7.91;100.00;102766.41;5035179;28;20033;-72
2023/05/25 00:21:05;;;;;;;9.07;3.65;;;;;;;7.84;100.00;102763.22;5034911;28;20045;-73
2023/05/25 00:23:31;;;;;;;13.32;4.30;;;;;;;7.79;100.00;102762.56;5034633;28;20236;-73
2023/05/25 00:25:56;;;;;;;15.40;4.35;;;;;;;7.75;100.00;102775.13;5034732;28;20049;-73
2023/05/25 00:28:22;;;;;;;11.80;4.45;;;;;;;7.73;100.00;102768.16;5033936;28;20034;-72
2023/05/25 00:30:47;;;;;;;14.40;4.68;;;;;;;7.72;100.00;102769.97;5034813;28;20041;-73
2023/05/25 00:33:14;;;;;;;15.40;4.88;;;;;;;7.73;100.00;102778.75;5034221;28;20029;-73
2023/05/25 00:35:41;;;;;;;10.65;4.80;;;;;;;7.75;100.00;102772.47;5034819;28;20041;-72
2023/05/25 00:38:11;;;;;;;12.25;5.07;;;;;;;7.77;100.00;102765.28;5034828;28;20041;-73
2023/05/25 00:40:39;;;;;;;10.13;4.47;;;;;;;7.75;100.00;102766.31;5034214;28;20029;-72
2023/05/25 00:43:07;;;;;;;18.20;5.43;;;;;;;7.72;100.00;102774.41;5034549;28;20026;-72
2023/05/25 00:45:32;;;;;;;13.13;5.10;;;;;;;7.68;100.00;102763.09;5034216;28;20037;-72
2023/05/25 00:47:59;;;;;;;18.95;5.55;;;;;;;7.66;100.00;102778.22;5034569;28;20029;-72
2023/05/25 00:50:37;;;;;;;15.85;5.82;;;;;;;7.62;100.00;102768.69;5034089;28;20034;-72
2023/05/25 00:53:03;;;;;;;14.50;5.82;;;;;;;7.58;100.00;102773.28;5033334;28;20025;-72
2023/05/25 00:55:35;;;;;;;15.32;6.00;;;;;;;7.55;100.00;102768.13;5034043;28;20466;-72
2023/05/25 00:58:03;;;;;;;14.43;5.57;;;;;;;7.53;100.00;102777.91;5034497;28;20056;-72
2023/05/25 01:00:31;;;;;;;14.38;5.90;;;;;;;7.51;100.00;102776.25;5033892;28;20558;-72
2023/05/25 01:02:58;;;;;;;16.23;6.03;;;;;;;7.48;100.00;102779.06;5032789;28;20489;-71
2023/05/25 01:05:27;;;;;;;16.55;5.60;;;;;;;7.47;100.00;102786.16;5033848;28;20032;-72
2023/05/25 01:07:55;;;;;;;15.63;6.13;;;;;;;7.46;100.00;102786.22;5034151;28;20026;-72
2023/05/25 01:10:23;;;;;;;11.68;4.28;;;;;;;7.41;100.00;102784.66;5033395;28;20508;-72
2023/05/25 01:12:52;;;;;;;23.30;6.68;;;;;;;7.40;100.00;102790.00;5034049;28;20037;-72
2023/05/25 01:15:19;;;;;;;13.80;6.18;;;;;;;7.38;100.00;102797.19;5033779;28;20040;-72
2023/05/25 01:17:44;;;;;;;14.38;5.40;;;;;;;7.36;100.00;102794.59;5033676;28;20451;-72
2023/05/25 01:20:10;;;;;;;17.13;6.07;;;;;;;7.34;100.00;102793.78;5033623;28;20116;-72
2023/05/25 01:25:44;;;;;;;17.42;6.80;;;;;;;7.31;100.00;102801.88;5033292;28;20037;-72
2023/05/25 01:28:26;;;;;;;12.55;6.32;;;;;;;7.31;100.00;102796.59;5033584;28;20041;-72
2023/05/25 01:30:54;;;;;;;13.82;5.47;;;;;;;7.30;100.00;102800.19;5033766;28;20124;-72
2023/05/25 01:33:20;;;;;;;15.57;5.63;;;;;;;7.28;100.00;102799.38;5033791;28;20033;-72
2023/05/25 01:35:46;;;;;;;11.00;5.10;;;;;;;7.26;100.00;102795.09;5033576;28;20040;-72
2023/05/25 01:38:12;;;;;;;16.42;7.05;;;;;;;7.23;100.00;102793.44;5033612;28;20037;-72
2023/05/25 01:40:37;;;;;;;14.80;5.28;;;;;;;7.20;100.00;102790.94;5033302;28;20059;-74
2023/05/25 01:43:02;;;;;;;16.08;6.18;;;;;;;7.18;100.00;102792.78;5033923;28;20045;-72
2023/05/25 01:45:28;;;;;;;18.02;5.97;;;;;;;7.15;100.00;102800.84;5033180;28;20034;-73
2023/05/25 01:48:34;;;;;;;13.20;6.25;;;;;;;7.14;100.00;102807.94;5033885;28;20021;-73
2023/05/25 01:51:02;;;;;;;17.63;5.82;;;;;;;7.14;100.00;102801.81;5033490;28;20032;-73
2023/05/25 01:53:49;;;;;;;18.10;5.60;;;;;;;7.11;100.00;102801.94;5032955;28;20441;-73
2023/05/25 01:56:16;;;;;;;14.07;5.45;;;;;;;7.08;100.00;102808.22;5029137;28;20047;-73
2023/05/25 01:58:45;;;;;;;14.32;5.75;;;;;;;7.05;100.00;102803.91;5032892;28;20034;-72
2023/05/25 02:01:14;;;;;;;12.60;5.85;;;;;;;7.05;100.00;102808.38;5033290;28;20485;-72
2023/05/25 02:03:43;;;;;;;11.23;5.20;;;;;;;7.03;100.00;102813.72;5032658;28;20064;-72
2023/05/25 02:06:09;;;;;;;9.98;4.47;;;;;;;7.02;100.00;102816.44;5032908;28;20083;-73
2023/05/25 02:08:34;;;;;;;16.15;5.78;;;;;;;6.99;100.00;102816.59;5032830;28;20022;-73
2023/05/25 02:11:00;;;;;;;15.88;5.90;;;;;;;6.96;100.00;102817.56;5032721;28;20088;-72
2023/05/25 02:13:25;;;;;;;13.77;5.80;;;;;;;6.95;100.00;102813.19;5032656;28;20079;-74
2023/05/25 02:15:51;;;;;;;15.73;5.60;;;;;;;6.92;100.00;102818.63;5032959;28;20505;-73
2023/05/25 02:18:17;;;;;;;14.77;5.07;;;;;;;6.87;100.00;102820.63;5033003;28;20071;-72
2023/05/25 02:20:43;;;;;;;14.52;5.93;;;;;;;6.80;100.00;102822.66;5032363;28;20416;-72
2023/05/25 02:23:09;;;;;;;9.05;5.30;;;;;;;6.81;100.00;102824.38;5032968;28;20037;-72
2023/05/25 02:25:34;;;;;;;14.98;6.03;;;;;;;6.81;100.00;102824.38;5032793;28;20084;-72
2023/05/25 02:27:59;;;;;;;25.08;7.90;;;;;;;6.79;100.00;102826.25;5032882;28;20065;-73
2023/05/25 02:30:25;;;;;;;15.25;6.13;;;;;;;6.80;100.00;102824.44;5032882;28;20147;-73
2023/05/25 02:32:50;;;;;;;12.60;6.35;;;;;;;6.79;100.00;102833.31;5047740;28;20022;-73
2023/05/25 02:35:16;;;;;;;14.80;6.43;;;;;;;6.76;100.00;102833.44;5032796;28;20037;-73
2023/05/25 02:37:41;;;;;;;13.60;6.88;;;;;;;6.74;100.00;102836.16;5032339;28;20029;-72
2023/05/25 02:40:08;;;;;;;17.58;6.57;;;;;;;6.72;100.00;102838.00;5032131;28;20136;-72
2023/05/25 02:42:33;;;;;;;18.02;6.72;;;;;;;6.73;100.00;102837.06;5032138;28;20037;-73
2023/05/25 02:44:58;;;;;;;14.05;5.50;;;;;;;6.69;100.00;102836.34;5031330;28;20030;-73
2023/05/25 02:47:24;;;;;;;14.63;5.47;;;;;;;6.66;100.00;102833.84;5032847;28;20091;-72
2023/05/25 02:49:51;;;;;;;8.60;4.85;;;;;;;6.61;100.00;102830.50;5031986;28;20050;-73
2023/05/25 02:52:16;;;;;;;13.60;5.53;;;;;;;6.57;100.00;102828.94;5032257;28;20072;-73
2023/05/25 02:54:41;;;;;;;7.13;4.60;;;;;;;6.55;100.00;102836.06;5032360;28;20057;-73
2023/05/25 02:57:07;;;;;;;10.60;4.90;;;;;;;6.52;100.00;102833.53;5032352;28;20037;-73
2023/05/25 02:59:32;;;;;;;10.35;4.80;;;;;;;6.55;100.00;102835.22;5032009;28;20034;-73
2023/05/25 03:01:58;;;;;;;13.32;5.00;;;;;;;6.55;100.00;102838.69;5031869;28;20033;-72
2023/05/25 03:04:24;;;;;;;11.00;4.72;;;;;;;6.55;100.00;102838.69;5032103;28;20026;-72
2023/05/25 03:06:50;;;;;;;12.57;5.90;;;;;;;6.62;100.00;102842.81;5031992;28;20041;-73
2023/05/25 03:09:15;;;;;;;15.30;4.95;;;;;;;6.71;100.00;102844.22;5032246;28;20045;-72
2023/05/25 03:11:41;;;;;;;7.88;4.93;;;;;;;6.76;100.00;102838.72;5032005;28;20431;-73
2023/05/25 03:14:06;;;;;;;11.50;5.28;;;;;;;6.77;100.00;102841.31;5032124;28;20025;-72
2023/05/25 03:16:34;;;;;;;7.40;4.65;;;;;;;6.78;100.00;102845.69;5032284;28;20092;-72
2023/05/25 03:19:04;;;;;;;10.75;4.90;;;;;;;6.79;100.00;102839.47;5032188;28;20042;-72
2023/05/25 03:21:30;;;;;;;12.20;5.25;;;;;;;6.80;100.00;102842.97;5031817;28;20045;-72
2023/05/25 03:23:56;;;;;;;12.57;4.82;;;;;;;6.77;100.00;102843.09;5030494;28;20034;-73
2023/05/25 03:26:21;;;;;;;13.52;6.13;;;;;;;6.73;100.00;102839.72;5032077;28;20060;-72
2023/05/25 03:28:47;;;;;;;9.15;4.72;;;;;;;6.69;100.00;102840.78;5031565;28;20273;-72
2023/05/25 03:31:12;;;;;;;9.20;4.63;;;;;;;6.65;100.00;102844.47;5032054;28;20108;-71
2023/05/25 03:33:38;;;;;;;11.40;5.43;;;;;;;6.62;100.00;102837.53;5031586;28;20122;-72
2023/05/25 03:36:07;;;;;;;11.02;5.60;;;;;;;6.61;100.00;102851.66;5031721;28;20025;-72
2023/05/25 03:38:33;;;;;;;11.13;4.85;;;;;;;6.56;100.00;102848.38;5032102;28;20068;-72
2023/05/25 03:40:59;;;;;;;11.73;5.63;;;;;;;6.58;100.00;102843.00;5031575;28;20543;-72
2023/05/25 03:43:24;;;;;;;8.15;4.38;;;;;;;6.56;100.00;102844.88;5032107;28;20060;-72
2023/05/25 03:45:49;;;;;;;9.43;4.55;;;;;;;6.50;100.00;102838.03;5031508;28;20044;-72
2023/05/25 03:48:15;;;;;;;10.05;5.18;;;;;;;6.49;100.00;102842.50;5031479;28;20127;-72
2023/05/25 03:50:40;;;;;;;7.07;4.50;;;;;;;6.48;100.00;102848.69;5033230;28;20042;-73
2023/05/25 03:53:05;;;;;;;11.43;5.35;;;;;;;6.50;100.00;102849.47;5035262;28;20389;-72
2023/05/25 03:55:31;;;;;;;12.20;4.95;;;;;;;6.49;100.00;102853.06;5035361;28;20048;-72
2023/05/25 03:57:56;;;;;;;9.95;5.07;;;;;;;6.49;100.00;102857.47;5035173;28;20037;-73
2023/05/25 04:00:22;;;;;;;11.00;5.20;;;;;;;6.50;100.00;102860.06;5035388;28;20079;-72
2023/05/25 04:02:47;;;;;;;9.45;5.28;;;;;;;6.50;100.00;102860.06;5035156;28;20033;-71
2023/05/25 04:05:13;;;;;;;11.00;4.95;;;;;;;6.50;100.00;102865.34;5035309;28;20327;-72
2023/05/25 04:07:39;;;;;;;15.75;5.93;;;;;;;6.52;100.00;102858.22;5035622;28;20040;-72
2023/05/25 04:10:06;;;;;;;11.98;5.05;;;;;;;6.55;100.00;102859.84;5035159;28;20051;-72
2023/05/25 04:12:32;;;;;;;9.82;5.50;;;;;;;6.57;100.00;102852.75;5035202;28;20037;-72
2023/05/25 04:14:57;;;;;;;13.77;5.90;;;;;;;6.62;100.00;102861.31;5034573;28;20033;-72
2023/05/25 04:17:24;;;;;;;7.47;4.70;;;;;;;6.64;100.00;102861.25;5035308;28;20037;-72
2023/05/25 04:19:50;;;;;;;17.55;6.32;;;;;;;6.65;100.00;102861.19;5034721;28;20040;-73
2023/05/25 04:22:16;;;;;;;8.93;4.70;;;;;;;6.69;100.00;102868.09;5035059;28;20046;-72
2023/05/25 04:24:41;;;;;;;11.15;5.28;;;;;;;6.72;100.00;102867.13;5035116;28;20042;-72
2023/05/25 04:27:07;;;;;;;10.63;4.50;;;;;;;6.74;100.00;102867.91;5034702;28;20073;-72
2023/05/25 04:29:32;;;;;;;9.85;4.88;;;;;;;6.77;100.00;102875.69;5035032;28;20116;-72
2023/05/25 04:31:57;;;;;;;13.40;6.53;;;;;;;6.81;100.00;102873.81;5034387;28;20037;-72
2023/05/25 04:34:23;;;;;;;10.05;5.38;;;;;;;6.86;100.00;102877.09;5050229;28;20036;-72
2023/05/25 04:36:48;;;;;;;12.50;6.13;;;;;;;6.91;100.00;102875.09;5034586;28;20037;-73
2023/05/25 04:39:14;;;;;;;12.07;6.10;;;;;;;6.95;100.00;102878.50;5034733;28;20033;-73
2023/05/25 04:41:41;;;;;;;9.60;5.63;;;;;;;7.00;100.00;102887.97;5034386;28;20033;-72
2023/05/25 04:44:07;;;;;;;8.55;4.55;;;;;;;7.04;100.00;102889.53;5049440;28;20033;-73
2023/05/25 04:46:35;;;;;;;8.95;4.93;;;;;;;7.12;100.00;102896.28;5034555;28;20034;-73
2023/05/25 04:49:03;;;;;;;17.17;6.50;;;;;;;7.18;100.00;102896.03;5034084;28;20037;-73
2023/05/25 04:51:28;;;;;;;19.35;5.93;;;;;;;7.23;100.00;102894.91;5034646;28;20040;-72
2023/05/25 04:53:54;;;;;;;12.82;6.38;;;;;;;7.31;100.00;102899.88;5049504;28;20033;-73
2023/05/25 04:56:21;;;;;;;12.98;5.15;;;;;;;7.35;100.00;102893.50;5034200;28;20049;-72
2023/05/25 04:58:46;;;;;;;14.27;5.82;;;;;;;7.45;100.00;102901.03;5034518;28;20041;-72
2023/05/25 05:01:11;;;;;;;17.55;8.57;;;;;;;7.54;100.00;102895.34;5034095;28;20536;-72
2023/05/25 05:03:37;;;;;;;24.30;10.60;;;;;;;7.63;100.00;102905.53;5034105;28;20382;-72
2023/05/25 05:06:02;;;;;;;19.90;8.25;;;;;;;7.71;100.00;102903.38;5033924;28;20365;-72
2023/05/25 05:08:28;;;;;;;17.33;7.70;;;;;;;7.80;100.00;102907.41;5033933;28;20088;-72
2023/05/25 05:10:53;;;;;;;21.13;8.75;;;;;;;7.89;100.00;102906.97;5033854;28;20504;-73
2023/05/25 05:13:18;;;;;;;15.40;7.70;;;;;;;7.97;100.00;102900.47;5034117;28;20033;-72
2023/05/25 05:15:44;;;;;;;25.38;9.80;;;;;;;8.02;100.00;102906.44;5034214;28;20033;-72
2023/05/25 05:18:09;;;;;;;27.75;9.63;;;;;;;8.10;100.00;102914.88;5033748;28;20426;-72
2023/05/25 05:20:35;;;;;;;29.20;10.15;;;;;;;8.19;100.00;102918.88;5033508;28;20033;-72
2023/05/25 05:23:00;;;;;;;18.75;9.23;;;;;;;8.23;100.00;102910.69;5033217;28;20034;-73
2023/05/25 05:25:25;;;;;;;25.20;9.90;;;;;;;8.31;100.00;102912.97;5033917;28;20030;-72
2023/05/25 05:27:51;;;;;;;25.00;10.90;;;;;;;8.37;100.00;102915.34;5033394;28;20036;-72
2023/05/25 05:30:17;;;;;;;25.10;11.25;;;;;;;8.45;100.00;102920.31;5033662;28;20361;-72
2023/05/25 05:32:42;;;;;;;24.15;10.45;;;;;;;8.54;100.00;102917.22;5033699;28;20022;-71
2023/05/25 05:35:08;;;;;;;24.23;11.10;;;;;;;8.64;100.00;102920.25;5033376;28;20381;-71
2023/05/25 05:37:33;;;;;;;21.40;9.68;;;;;;;8.73;100.00;102913.66;5033880;28;20433;-71
2023/05/25 05:39:59;;;;;;;17.45;9.82;;;;;;;8.81;100.00;102919.44;5033245;28;20040;-71
2023/05/25 05:42:24;;;;;;;22.63;9.85;;;;;;;8.91;100.00;102920.72;5033736;28;20033;-72
2023/05/25 05:44:50;;;;;;;21.55;9.90;;;;;;;9.02;100.00;102925.47;5023975;28;20037;-73
2023/05/25 05:47:15;;;;;;;20.23;9.80;;;;;;;9.13;100.00;102927.56;5025588;28;20455;-72
2023/05/25 05:49:41;;;;;;;25.63;10.32;;;;;;;9.26;100.00;102931.31;5026166;28;20494;-72
2023/05/25 05:52:09;;;;;;;21.77;9.63;;;;;;;9.38;100.00;102927.16;5010521;28;20041;-73
2023/05/25 05:54:34;;;;;;;18.40;9.43;;;;;;;9.53;100.00;102936.97;5010850;28;20485;-73
2023/05/25 05:57:00;;;;;;;19.95;9.07;;;;;;;9.67;100.00;102938.03;5009880;28;20042;-75
2023/05/25 05:59:25;;;;;;;19.63;9.38;;;;;;;9.75;100.00;102942.94;5010824;28;20044;-72
2023/05/25 06:01:51;;;;;;;17.77;8.73;;;;;;;9.84;100.00;102950.44;5030554;28;20581;-74
2023/05/25 06:04:18;;;;;;;14.77;8.43;;;;;;;9.96;100.00;102955.09;5029327;28;20363;-71
2023/05/25 06:06:44;;;;;;;19.45;7.97;;;;;;;10.05;100.00;102957.25;5029738;28;20036;-71
2023/05/25 06:09:10;;;;;;;18.80;8.25;;;;;;;10.17;100.00;102960.19;5029464;28;20033;-72
2023/05/25 06:11:38;;;;;;;21.98;8.07;;;;;;;10.34;100.00;102952.13;5028917;28;20037;-72
2023/05/25 06:14:04;;;;;;;16.77;7.75;;;;;;;10.67;100.00;102945.84;5029093;28;20060;-72
2023/05/25 06:16:29;;;;;;;18.27;8.38;;;;;;;11.05;100.00;102952.56;5030341;28;20037;-72
2023/05/25 06:18:55;;;;;;;17.70;8.38;;;;;;;11.41;100.00;102959.31;5030226;28;20033;-71
2023/05/25 06:21:20;;;;;;;14.95;7.15;;;;;;;11.75;100.00;102965.25;5029270;28;20147;-71
2023/05/25 06:23:47;;;;;;;16.88;6.72;;;;;;;12.04;100.00;102963.44;5045045;28;20587;-71
2023/05/25 06:26:12;;;;;;;12.38;6.28;;;;;;;12.36;100.00;102955.22;5028423;28;20405;-71
2023/05/25 06:28:37;;;;;;;18.90;6.28;;;;;;;12.70;100.00;102953.84;5030593;28;20029;-72
2023/05/25 06:31:03;;;;;;;16.48;5.10;;;;;;;13.05;100.00;102950.63;5029595;28;20474;-72
2023/05/25 06:33:28;;;;;;;13.82;5.22;;;;;;;13.32;100.00;102952.38;5029845;28;20138;-73
2023/05/25 06:35:59;;;;;;;11.07;4.78;;;;;;;13.43;100.00;102953.50;5030029;28;20037;-73
2023/05/25 06:38:24;;;;;;;12.37;5.10;;;;;;;13.58;100.00;102957.75;5029641;28;20124;-74
2023/05/25 06:40:50;;;;;;;11.27;4.53;;;;;;;13.64;100.00;102951.13;5030205;28;20132;-73
2023/05/25 06:43:15;;;;;;;14.18;5.13;;;;;;;13.52;100.00;102959.03;5029824;28;20029;-73
2023/05/25 06:45:40;;;;;;;14.20;4.82;;;;;;;13.49;100.00;102958.41;5029501;28;20116;-74
2023/05/25 06:48:06;;;;;;;13.00;4.05;;;;;;;13.57;100.00;102966.78;5029385;28;20076;-74
2023/05/25 06:50:31;;;;;;;11.73;4.47;;;;;;;13.71;100.00;102961.28;5030026;28;20040;-74
2023/05/25 06:52:56;;;;;;;10.23;3.95;;;;;;;14.01;100.00;102962.75;5029648;28;20470;-73
2023/05/25 06:55:22;;;;;;;9.75;3.70;;;;;;;14.20;100.00;102970.31;5029314;28;20088;-74
2023/05/25 06:57:47;;;;;;;10.52;3.70;;;;;;;14.38;100.00;102967.28;5029388;28;20031;-73
2023/05/25 07:00:13;;;;;;;12.63;3.53;;;;;;;14.39;100.00;102969.84;5029380;28;20037;-74
2023/05/25 07:02:38;;;;;;;13.32;3.78;;;;;;;14.19;100.00;102975.78;5029440;28;20612;-74
2023/05/25 07:05:05;;;;;;;8.98;3.55;;;;;;;14.05;100.00;102977.63;5029645;28;20469;-74
2023/05/25 07:07:30;;;;;;;12.02;4.05;;;;;;;14.02;100.00;102985.03;5027506;28;20162;-72
2023/05/25 07:09:56;;;;;;;6.30;3.40;;;;;;;14.01;100.00;102986.00;5024853;28;20033;-73
2023/05/25 07:12:21;;;;;;;8.75;3.75;;;;;;;13.96;100.00;102980.09;5017107;28;20038;-74
2023/05/25 07:14:47;;;;;;;7.32;3.28;;;;;;;14.26;100.00;102979.72;5011419;28;20061;-74
2023/05/25 07:17:14;;;;;;;8.55;4.03;;;;;;;14.59;100.00;102989.78;5011303;28;20038;-74
2023/05/25 07:19:41;;;;;;;9.45;3.85;;;;;;;14.58;100.00;102992.59;5011766;28;20054;-72
2023/05/25 07:22:06;;;;;;;7.18;3.53;;;;;;;14.70;100.00;102982.81;5009974;28;20096;-77
2023/05/25 07:24:32;;;;;;;9.55;3.80;;;;;;;15.01;100.00;102985.88;5011591;28;20398;-74
2023/05/25 07:26:57;;;;;;;17.00;5.60;;;;;;;15.38;100.00;102991.97;5015789;28;20443;-79
2023/05/25 07:29:22;;;;;;;8.70;3.95;;;;;;;15.69;100.00;102992.28;5015473;28;20040;-81
2023/05/25 07:31:48;;;;;;;8.93;4.18;;;;;;;15.92;100.00;102995.84;5016069;28;20046;-80
2023/05/25 07:34:14;;;;;;;9.30;4.22;;;;;;;16.11;100.00;103000.59;5014718;28;20476;-81
2023/05/25 07:36:39;;;;;;;12.10;3.90;;;;;;;16.02;100.00;102993.28;5015785;28;20026;-80
2023/05/25 07:39:04;;;;;;;7.72;3.72;;;;;;;16.36;100.00;103003.97;5015775;28;20044;-83
2023/05/25 07:41:30;;;;;;;7.25;3.47;;;;;;;16.53;100.00;102995.41;5015471;28;20112;-79
2023/05/25 07:43:55;;;;;;;9.20;3.45;;;;;;;16.72;100.00;102999.28;5014324;28;20026;-80
2023/05/25 07:46:23;;;;;;;5.00;3.20;;;;;;;16.69;100.00;103008.44;5015251;28;20030;-81
2023/05/25 07:48:49;;;;;;;7.50;3.45;;;;;;;16.71;100.00;103008.31;5015340;28;20042;-80
2023/05/25 07:51:15;;;;;;;9.80;3.55;;;;;;;16.77;100.00;103005.13;5030065;28;20029;-80
2023/05/25 07:53:41;;;;;;;9.48;3.58;;;;;;;17.13;100.00;103007.56;5015291;28;20037;-79
2023/05/25 07:56:07;;;;;;;7.80;3.92;;;;;;;17.41;100.00;103008.78;5015292;28;20036;-80
2023/05/25 07:58:33;;;;;;;11.77;3.67;;;;;;;17.50;100.00;103005.28;5022413;28;20085;-82
2023/05/25 08:00:58;;;;;;;9.77;3.22;;;;;;;17.43;100.00;103021.09;5031342;28;20032;-82
2023/05/25 08:03:24;;;;;;;7.30;3.28;;;;;;;17.30;100.00;103023.13;5032215;28;20120;-82
2023/05/25 08:05:49;;;;;;;10.80;3.88;;;;;;;16.87;100.00;103024.91;5032565;28;20098;-82
2023/05/25 08:08:15;;;;;;;7.60;3.38;;;;;;;16.60;100.00;103027.13;5031582;28;20029;-82
2023/05/25 08:10:40;;;;;;;9.68;3.40;;;;;;;16.49;100.00;103025.34;5032189;28;20025;-82
2023/05/25 08:13:06;;;;;;;8.13;3.47;;;;;;;16.58;100.00;103024.56;5030003;28;20545;-82
2023/05/25 08:15:31;;;;;;;8.52;3.60;;;;;;;16.51;100.00;103029.63;5029069;28;20029;-82
2023/05/25 08:17:56;;;;;;;9.13;4.15;;;;;;;16.31;100.00;103028.53;5034553;28;20025;-82
2023/05/25 08:20:23;;;;;;;6.38;3.45;;;;;;;16.03;100.00;103038.81;5034519;28;20036;-82
2023/05/25 08:22:52;;;;;;;13.07;3.85;;;;;;;15.78;100.00;103033.63;5034253;28;20049;-81
2023/05/25 08:25:18;;;;;;;11.23;3.75;;;;;;;15.38;100.00;103032.19;5034197;28;20034;-80
2023/05/25 08:27:43;;;;;;;8.88;3.63;;;;;;;15.38;100.00;103040.25;5034245;28;20026;-82
2023/05/25 08:30:09;;;;;;;12.25;3.50;;;;;;;15.34;100.00;103038.75;5034942;28;20034;-82
2023/05/25 08:32:34;;;;;;;9.45;3.83;;;;;;;15.25;100.00;103039.47;5034480;28;20029;-82
2023/05/25 08:35:02;;;;;;;8.63;3.28;;;;;;;15.32;100.00;103038.88;5035193;28;20036;-82
2023/05/25 08:37:28;;;;;;;7.70;3.03;;;;;;;15.42;100.00;103047.09;5033938;28;20029;-80
2023/05/25 08:39:53;;;;;;;7.47;2.88;;;;;;;15.68;100.00;103052.28;5034797;28;20068;-76
2023/05/25 08:42:19;;;;;;;7.32;3.00;;;;;;;15.89;100.00;103052.47;5034296;28;20452;-79
2023/05/25 08:44:45;;;;;;;11.77;3.35;;;;;;;15.91;100.00;103050.50;5034657;28;20430;-79
2023/05/25 08:47:12;;;;;;;6.88;3.00;;;;;;;15.84;100.00;103047.44;5035237;28;20040;-80
2023/05/25 08:49:38;;;;;;;5.18;2.92;;;;;;;15.69;100.00;103056.69;5034248;28;20036;-80
2023/05/25 08:52:05;;;;;;;9.45;3.83;;;;;;;15.49;100.00;103051.00;5034725;28;20120;-81
2023/05/25 08:54:35;;;;;;;9.05;3.30;;;;;;;15.32;100.00;103054.97;5033861;28;20048;-80
2023/05/25 08:57:11;;;;;;;8.23;3.13;;;;;;;15.24;100.00;103053.84;5033058;28;20124;-80
2023/05/25 08:59:44;;;;;;;7.85;3.53;;;;;;;15.09;100.00;103062.09;5033931;28;20041;-80
2023/05/25 09:02:33;;;;;;;9.88;3.47;;;;;;;14.93;100.00;103051.66;5033945;28;20037;-80
2023/05/25 09:05:00;;;;;;;10.40;3.67;;;;;;;14.75;100.00;103052.97;5033722;28;20108;-78
2023/05/25 09:07:27;;;;;;;9.18;4.28;;;;;;;14.69;100.00;103065.03;5033216;28;20106;-79
2023/05/25 09:09:54;;;;;;;12.25;3.95;;;;;;;14.62;100.00;103053.88;5032267;28;20116;-79
2023/05/25 09:12:21;;;;;;;11.90;3.80;;;;;;;14.59;100.00;103056.75;5033981;28;20034;-78
2023/05/25 09:14:46;;;;;;;8.50;3.78;;;;;;;14.59;100.00;103050.56;5034466;28;20105;-77
2023/05/25 09:17:17;;;;;;;9.40;4.03;;;;;;;14.58;100.00;103055.03;5035060;28;20064;-76
2023/05/25 09:19:43;;;;;;;14.23;3.43;;;;;;;14.60;100.00;103066.53;5033917;28;20120;-77
2023/05/25 09:22:11;;;;;;;7.05;3.20;;;;;;;14.63;100.00;103057.44;5033167;28;20049;-77
2023/05/25 09:24:40;;;;;;;7.10;3.03;;;;;;;14.83;100.00;103055.13;5033092;28;20369;-76
2023/05/25 09:27:09;;;;;;;10.65;3.58;;;;;;;14.92;100.00;103060.66;5033320;28;20116;-76
2023/05/25 09:29:35;;;;;;;6.18;2.90;;;;;;;15.03;100.00;103056.31;5031496;28;20029;-76
2023/05/25 09:32:04;;;;;;;9.75;3.55;;;;;;;15.10;100.00;103055.72;5032827;28;20052;-77
2023/05/25 09:34:33;;;;;;;10.40;2.92;;;;;;;15.15;100.00;103056.25;5032769;28;20091;-77
2023/05/25 09:37:02;;;;;;;10.30;3.00;;;;;;;15.15;100.00;103064.31;5033238;28;20033;-76
2023/05/25 09:39:29;;;;;;;5.88;2.90;;;;;;;15.25;100.00;103055.56;5031479;28;20071;-77
2023/05/25 09:41:56;;;;;;;6.75;3.00;;;;;;;15.41;100.00;103066.84;5033010;28;20025;-77
2023/05/25 09:44:21;;;;;;;6.07;3.08;;;;;;;15.60;100.00;103060.94;5032762;28;20083;-77
2023/05/25 09:46:47;;;;;;;6.80;2.80;;;;;;;15.99;100.00;103055.28;5032865;28;20485;-76
2023/05/25 09:49:12;;;;;;;8.57;3.20;;;;;;;16.44;100.00;103059.81;5032130;28;20036;-76
2023/05/25 09:51:38;;;;;;;10.20;3.38;;;;;;;16.87;100.00;103067.09;5030459;28;20489;-76
2023/05/25 09:54:07;;;;;;;5.90;2.70;;;;;;;17.01;100.00;103063.25;5032459;28;20035;-78
2023/05/25 09:56:32;;;;;;;8.00;3.00;;;;;;;17.10;100.00;103067.84;5032362;28;20112;-77
2023/05/25 09:58:58;;;;;;;11.93;3.05;;;;;;;17.15;100.00;103056.69;5032574;28;20175;-77
2023/05/25 10:01:24;;;;;;;8.02;3.05;;;;;;;17.08;100.00;103070.66;5032104;28;20128;-77
2023/05/25 10:03:50;;;;;;;5.50;3.00;;;;;;;16.99;100.00;103068.75;5031409;28;20037;-77
2023/05/25 10:06:19;;;;;;;6.65;3.00;;;;;;;16.88;100.00;103069.66;5032417;28;20087;-77
2023/05/25 10:08:46;;;;;;;8.77;2.90;;;;;;;16.83;100.00;103065.59;5031624;28;20519;-77
2023/05/25 10:11:13;;;;;;;8.95;3.75;;;;;;;16.68;100.00;103068.53;5031995;28;20061;-77
2023/05/25 10:13:39;;;;;;;11.48;4.15;;;;;;;16.46;100.00;103074.78;5031797;28;20041;-77
2023/05/25 10:16:11;;;;;;;11.68;4.38;;;;;;;16.27;100.00;103077.25;5032234;28;20454;-78
2023/05/25 10:18:42;;;;;;;9.27;3.70;;;;;;;16.13;100.00;103076.50;5031841;28;20034;-76
2023/05/25 10:21:09;;;;;;;7.72;3.78;;;;;;;15.96;100.00;103077.84;5029751;28;20371;-77
2023/05/25 10:23:40;;;;;;;12.75;4.43;;;;;;;15.73;100.00;103070.69;5031862;28;20045;-77
2023/05/25 10:26:07;;;;;;;12.65;3.95;;;;;;;15.35;100.00;103070.00;5030972;28;20033;-76
2023/05/25 10:28:38;;;;;;;9.68;3.97;;;;;;;15.25;100.00;103075.19;5031729;28;20037;-77
2023/05/25 10:31:04;;;;;;;15.93;4.18;;;;;;;15.13;100.00;103070.75;5030814;28;20037;-77
2023/05/25 10:33:31;;;;;;;11.45;4.43;;;;;;;15.14;100.00;103072.47;5031755;28;20108;-77
2023/05/25 10:35:57;;;;;;;8.38;3.40;;;;;;;15.13;100.00;103081.47;5032173;28;20026;-77
2023/05/25 10:38:25;;;;;;;7.38;3.50;;;;;;;15.04;100.00;103076.81;5032264;28;20083;-77
2023/05/25 10:40:53;;;;;;;9.73;3.47;;;;;;;15.02;100.00;103076.91;5032029;28;20029;-75
2023/05/25 10:43:19;;;;;;;9.88;4.18;;;;;;;15.11;100.00;103081.59;5031646;28;20029;-76
2023/05/25 10:45:46;;;;;;;13.35;4.63;;;;;;;15.22;100.00;103086.13;5031258;28;20121;-77
2023/05/25 10:48:14;;;;;;;9.63;4.15;;;;;;;15.40;100.00;103085.72;5030377;28;20032;-75
2023/05/25 10:50:40;;;;;;;7.38;3.90;;;;;;;15.57;100.00;103081.75;5031400;28;20044;-76
2023/05/25 10:53:14;;;;;;;6.75;3.60;;;;;;;15.73;100.00;103082.28;5031715;28;20029;-75
2023/05/25 10:55:48;;;;;;;10.18;3.83;;;;;;;15.66;100.00;103084.59;5029944;28;20037;-75
2023/05/25 10:58:15;;;;;;;11.43;4.00;;;;;;;15.80;100.00;103082.72;5031799;28;20107;-74
2023/05/25 11:00:42;;;;;;;10.68;3.70;;;;;;;15.96;100.00;103080.53;5030535;28;20036;-75
2023/05/25 11:03:08;;;;;;;12.02;4.05;;;;;;;16.12;100.00;103082.88;5031679;28;20488;-76
2023/05/25 11:05:38;;;;;;;8.13;3.38;;;;;;;16.29;100.00;103086.06;5031142;28;20056;-76
2023/05/25 11:08:06;;;;;;;11.98;4.25;;;;;;;16.32;100.00;103085.81;5031549;28;20034;-77
2023/05/25 11:10:47;;;;;;;10.07;4.20;;;;;;;16.11;100.00;103081.16;5031005;28;20120;-77
2023/05/25 11:13:37;;;;;;;6.95;3.88;;;;;;;15.95;100.00;103080.66;5031759;28;20029;-77
2023/05/25 11:16:24;;;;;;;10.50;3.45;;;;;;;15.85;100.00;103080.50;5031657;28;20029;-77
2023/05/25 11:18:51;;;;;;;11.77;3.17;;;;;;;15.67;100.00;103080.06;5031174;28;20123;-77